createdAt,value
2019-03-15T00:00:52.813Z,2.50
2019-03-15T00:03:20.615Z,2.63
2019-03-15T00:05:48.366Z,2.43
2019-03-15T00:08:16.087Z,2.50
2019-03-15T00:11:03.174Z,2.80
2019-03-15T00:13:31.042Z,2.90
2019-03-15T00:15:59.111Z,2.27
2019-03-15T00:18:27.097Z,2.37
2019-03-15T00:20:55.149Z,2.50
2019-03-15T00:23:23.145Z,2.83
2019-03-15T00:25:51.091Z,2.53
2019-03-15T00:28:19.193Z,2.20
2019-03-15T00:30:47.345Z,2.20
2019-03-15T00:33:15.090Z,2.10
2019-03-15T00:35:42.829Z,2.37
2019-03-15T00:38:10.574Z,2.40
2019-03-15T00:40:38.285Z,3.00
2019-03-15T00:43:06.032Z,1.97
2019-03-15T00:45:33.782Z,2.43
2019-03-15T00:48:01.791Z,2.00
2019-03-15T00:50:29.504Z,2.40
2019-03-15T00:52:57.241Z,1.93
2019-03-15T00:55:24.985Z,2.10
2019-03-15T00:57:52.745Z,2.37
2019-03-15T01:00:20.458Z,2.70
2019-03-15T01:02:48.206Z,2.53
2019-03-15T01:05:16.182Z,2.07
2019-03-15T01:07:44.323Z,2.27
2019-03-15T01:10:12.391Z,2.17
2019-03-15T01:12:40.273Z,2.43
2019-03-15T01:15:08.273Z,1.90
2019-03-15T01:17:36.217Z,1.80
2019-03-15T01:20:04.513Z,2.17
2019-03-15T01:22:32.481Z,1.70
2019-03-15T01:25:00.552Z,2.13
2019-03-15T01:27:28.620Z,2.30
2019-03-15T01:29:56.604Z,1.97
2019-03-15T01:32:24.563Z,1.70
2019-03-15T01:34:52.578Z,1.60
2019-03-15T01:37:20.313Z,2.10
2019-03-15T01:39:47.993Z,2.07
2019-03-15T01:42:15.696Z,1.70
2019-03-15T01:44:43.433Z,1.50
2019-03-15T01:47:11.152Z,1.87
2019-03-15T01:49:39.090Z,1.70
2019-03-15T01:52:07.422Z,2.10
2019-03-15T01:54:35.547Z,1.60
2019-03-15T01:57:03.499Z,1.33
2019-03-15T01:59:31.591Z,1.40
2019-03-15T02:01:59.561Z,1.50
2019-03-15T02:04:27.467Z,1.17
2019-03-15T02:06:55.397Z,1.20
2019-03-15T02:09:23.389Z,1.30
2019-03-15T02:11:51.344Z,1.50
2019-03-15T02:14:19.371Z,1.23
2019-03-15T02:16:47.298Z,1.57
2019-03-15T02:19:15.025Z,3.80
2019-03-15T02:21:43.433Z,1.03
2019-03-15T02:24:11.439Z,1.13
2019-03-15T02:26:39.231Z,1.80
2019-03-15T02:29:07.301Z,1.47
2019-03-15T02:31:35.009Z,1.37
2019-03-15T02:34:02.912Z,1.10
2019-03-15T02:36:30.649Z,2.27
2019-03-15T02:38:58.362Z,1.20
2019-03-15T02:41:26.339Z,1.20
2019-03-15T02:43:54.201Z,1.17
2019-03-15T02:46:22.200Z,1.27
2019-03-15T02:48:50.149Z,1.80
2019-03-15T02:51:18.245Z,1.30
2019-03-15T02:53:46.199Z,1.37
2019-03-15T02:56:14.989Z,1.10
2019-03-15T02:58:42.805Z,1.70
2019-03-15T03:01:10.519Z,1.73
2019-03-15T03:03:38.508Z,1.43
2019-03-15T03:06:06.413Z,1.33
2019-03-15T03:08:34.132Z,1.90
2019-03-15T03:11:02.043Z,1.50
2019-03-15T03:13:29.996Z,1.70
2019-03-15T03:15:57.773Z,1.80
2019-03-15T03:18:25.487Z,1.53
2019-03-15T03:20:53.221Z,1.90
2019-03-15T03:23:20.979Z,1.83
2019-03-15T03:25:48.697Z,2.27
2019-03-15T03:28:16.392Z,2.10
2019-03-15T03:30:45.734Z,2.07
2019-03-15T03:33:14.066Z,1.77
2019-03-15T03:35:42.169Z,1.80
2019-03-15T03:38:10.147Z,2.13
2019-03-15T03:40:37.876Z,1.83
2019-03-15T03:43:05.598Z,1.93
2019-03-15T03:45:33.324Z,2.33
2019-03-15T03:48:01.038Z,1.90
2019-03-15T03:50:28.942Z,2.43
2019-03-15T03:52:56.974Z,1.70
2019-03-15T03:55:25.555Z,2.40
2019-03-15T03:57:53.639Z,2.33
2019-03-15T04:00:21.532Z,2.00
2019-03-15T04:02:49.509Z,1.77
2019-03-15T04:05:18.181Z,2.20
2019-03-15T04:07:46.113Z,2.00
2019-03-15T04:10:59.895Z,1.53
2019-03-15T04:13:27.562Z,1.83
2019-03-15T04:15:55.278Z,1.90
2019-03-15T04:18:22.850Z,2.10
2019-03-15T04:20:50.471Z,2.30
2019-03-15T04:23:18.049Z,2.13
2019-03-15T04:25:45.746Z,1.93
2019-03-15T04:28:13.445Z,2.20
2019-03-15T04:30:41.021Z,2.50
2019-03-15T04:33:08.663Z,3.07
2019-03-15T04:35:36.254Z,2.90
2019-03-15T04:38:04.067Z,2.10
2019-03-15T04:40:31.873Z,2.47
2019-03-15T04:42:59.471Z,2.47
2019-03-15T04:45:27.306Z,2.67
2019-03-15T04:47:54.907Z,2.47
2019-03-15T04:50:22.705Z,2.67
2019-03-15T04:52:50.433Z,2.57
2019-03-15T04:55:18.025Z,2.40
2019-03-15T04:57:45.749Z,2.30
2019-03-15T05:00:13.382Z,2.30
2019-03-15T05:02:45.789Z,2.63
2019-03-15T05:05:13.369Z,3.40
2019-03-15T05:07:41.189Z,2.70
2019-03-15T05:10:09.095Z,2.70
2019-03-15T05:12:36.787Z,2.20
2019-03-15T05:15:04.471Z,2.37
2019-03-15T05:17:32.188Z,2.70
2019-03-15T05:19:59.866Z,1.90
2019-03-15T05:22:27.496Z,2.33
2019-03-15T05:24:55.233Z,2.17
2019-03-15T05:27:22.956Z,2.40
2019-03-15T05:29:50.685Z,2.23
2019-03-15T05:32:18.397Z,2.50
2019-03-15T05:34:46.148Z,2.73
2019-03-15T05:37:13.874Z,2.10
2019-03-15T05:39:42.474Z,2.27
2019-03-15T05:42:10.186Z,1.83
2019-03-15T05:44:37.920Z,2.10
2019-03-15T05:47:06.171Z,2.40
2019-03-15T05:49:34.167Z,1.70
2019-03-15T05:52:02.013Z,2.10
2019-03-15T05:54:30.041Z,1.90
2019-03-15T05:56:57.968Z,3.17
2019-03-15T05:59:25.865Z,2.47
2019-03-15T06:01:53.832Z,2.10
2019-03-15T06:04:21.829Z,2.60
2019-03-15T06:06:49.561Z,2.40
2019-03-15T06:09:17.301Z,2.27
2019-03-15T06:11:45.014Z,2.20
2019-03-15T06:14:12.867Z,2.97
2019-03-15T06:16:40.596Z,2.93
2019-03-15T06:19:08.333Z,2.47
2019-03-15T06:21:36.097Z,2.40
2019-03-15T06:24:03.853Z,2.53
2019-03-15T06:26:32.025Z,3.00
2019-03-15T06:29:01.652Z,2.33
2019-03-15T06:31:29.742Z,2.50
2019-03-15T06:33:57.541Z,2.20
2019-03-15T06:36:25.613Z,2.40
2019-03-15T06:38:53.405Z,3.07
2019-03-15T06:41:21.157Z,2.80
2019-03-15T06:43:49.211Z,3.40
2019-03-15T06:46:17.173Z,3.27
2019-03-15T06:48:45.475Z,2.23
2019-03-15T06:51:13.536Z,3.10
2019-03-15T06:53:41.587Z,3.07
2019-03-15T06:56:09.497Z,2.97
2019-03-15T06:58:51.669Z,2.40
2019-03-15T07:01:11.264Z,2.53
2019-03-15T07:03:39.164Z,2.63
2019-03-15T07:06:06.946Z,3.53
2019-03-15T07:08:34.756Z,2.87
2019-03-15T07:11:02.537Z,2.73
2019-03-15T07:13:30.246Z,3.37
2019-03-15T07:15:57.997Z,3.70
2019-03-15T07:18:25.730Z,2.20
2019-03-15T07:20:53.767Z,2.70
2019-03-15T07:23:21.520Z,3.40
2019-03-15T07:25:49.262Z,3.47
2019-03-15T07:28:16.945Z,2.90
2019-03-15T07:30:44.920Z,3.40
2019-03-15T07:33:12.969Z,2.93
2019-03-15T07:35:40.725Z,3.63
2019-03-15T07:38:09.134Z,3.07
2019-03-15T07:40:36.853Z,2.97
2019-03-15T07:43:05.486Z,5.12
2019-03-15T07:45:33.197Z,2.73
2019-03-15T07:48:00.977Z,3.27
2019-03-15T07:50:28.715Z,3.10
2019-03-15T07:52:56.447Z,3.10
2019-03-15T07:55:24.432Z,2.83
2019-03-15T07:57:52.407Z,3.50
2019-03-15T08:00:20.151Z,3.80
2019-03-15T08:02:47.870Z,3.37
2019-03-15T08:05:15.605Z,3.23
2019-03-15T08:07:45.693Z,2.87
2019-03-15T08:10:12.883Z,3.53
2019-03-15T08:12:40.629Z,2.87
2019-03-15T08:15:08.402Z,3.43
2019-03-15T08:17:36.157Z,4.03
2019-03-15T08:20:04.121Z,4.60
2019-03-15T08:22:31.874Z,4.70
2019-03-15T08:24:59.588Z,4.57
2019-03-15T08:27:27.337Z,3.43
2019-03-15T08:29:55.073Z,3.30
2019-03-15T08:32:22.939Z,3.33
2019-03-15T08:34:50.931Z,3.00
2019-03-15T08:37:18.996Z,2.47
2019-03-15T08:39:46.864Z,3.17
2019-03-15T08:42:14.878Z,3.07
2019-03-15T08:44:43.013Z,2.73
2019-03-15T08:47:10.753Z,2.07
2019-03-15T08:49:38.505Z,2.70
2019-03-15T08:52:06.230Z,2.77
2019-03-15T08:54:33.942Z,2.50
2019-03-15T08:57:01.672Z,2.57
2019-03-15T08:59:29.394Z,2.50
2019-03-15T09:01:57.229Z,3.23
2019-03-15T09:04:24.958Z,2.93
2019-03-15T09:06:52.835Z,2.70
2019-03-15T09:09:20.829Z,3.03
2019-03-15T09:11:48.562Z,2.77
2019-03-15T09:14:16.335Z,3.07
2019-03-15T09:16:44.329Z,4.23
2019-03-15T09:19:12.133Z,2.77
2019-03-15T09:21:39.867Z,2.83
2019-03-15T09:24:07.857Z,2.43
2019-03-15T09:26:35.817Z,2.33
2019-03-15T09:29:03.905Z,2.60
2019-03-15T09:31:46.651Z,3.00
2019-03-15T09:34:02.110Z,2.20
2019-03-15T09:36:29.853Z,2.50
2019-03-15T09:38:57.965Z,4.33
2019-03-15T09:41:31.844Z,3.03
2019-03-15T09:43:55.468Z,2.77
2019-03-15T09:46:23.622Z,2.67
2019-03-15T09:48:51.682Z,3.00
2019-03-15T09:51:19.777Z,2.70
2019-03-15T09:53:47.761Z,2.83
2019-03-15T09:56:15.714Z,2.40
2019-03-15T09:58:43.805Z,2.60
2019-03-15T10:01:11.934Z,2.60
2019-03-15T10:03:40.478Z,2.77
2019-03-15T10:06:14.772Z,2.53
2019-03-15T10:08:38.087Z,2.53
2019-03-15T10:11:05.925Z,2.03
2019-03-15T10:13:33.884Z,2.63
2019-03-15T10:16:01.619Z,2.40
2019-03-15T10:18:29.527Z,2.37
2019-03-15T10:20:57.513Z,2.83
2019-03-15T10:23:25.365Z,2.67
2019-03-15T10:25:53.245Z,2.40
2019-03-15T10:28:21.221Z,2.73
2019-03-15T10:30:48.991Z,1.80
2019-03-15T10:33:16.673Z,2.20
2019-03-15T10:35:44.409Z,2.30
2019-03-15T10:38:12.505Z,1.97
2019-03-15T10:40:40.394Z,2.37
2019-03-15T10:43:08.454Z,1.90
2019-03-15T10:45:36.552Z,2.40
2019-03-15T10:48:07.967Z,2.60
2019-03-15T10:50:34.669Z,1.90
2019-03-15T10:53:02.602Z,2.20
2019-03-15T10:55:30.712Z,2.17
2019-03-15T10:57:59.187Z,2.00
2019-03-15T11:00:27.734Z,1.87
2019-03-15T11:02:55.637Z,1.90
2019-03-15T11:05:23.652Z,2.03
2019-03-15T11:07:51.461Z,1.90
2019-03-15T11:10:19.426Z,2.40
2019-03-15T11:12:47.341Z,2.00
2019-03-15T11:15:15.359Z,2.10
2019-03-15T11:17:43.046Z,2.30
2019-03-15T11:20:10.881Z,1.93
2019-03-15T11:22:38.900Z,2.43
2019-03-15T11:25:06.881Z,2.20
2019-03-15T11:27:34.885Z,1.97
2019-03-15T11:30:02.957Z,2.43
2019-03-15T11:32:30.750Z,2.03
2019-03-15T11:34:58.775Z,3.17
2019-03-15T11:37:26.575Z,1.80
2019-03-15T11:39:54.450Z,1.83
2019-03-15T11:42:22.421Z,2.00
2019-03-15T11:44:50.407Z,2.07
2019-03-15T11:47:18.429Z,2.00
2019-03-15T11:49:46.433Z,2.10
2019-03-15T11:52:14.331Z,1.77
2019-03-15T11:54:42.085Z,2.10
2019-03-15T11:57:10.183Z,2.07
2019-03-15T11:59:37.901Z,2.27
2019-03-15T12:02:05.816Z,2.10
2019-03-15T12:04:33.765Z,2.47
2019-03-15T12:07:01.861Z,2.20
2019-03-15T12:09:29.833Z,1.70
2019-03-15T12:11:57.813Z,2.13
2019-03-15T12:14:25.574Z,3.70
2019-03-15T12:16:53.305Z,2.00
2019-03-15T12:19:21.053Z,2.30
2019-03-15T12:21:49.125Z,1.63
2019-03-15T12:24:17.034Z,2.30
2019-03-15T12:26:44.797Z,2.00
2019-03-15T12:29:12.597Z,1.60
2019-03-15T12:31:40.569Z,1.97
2019-03-15T12:34:08.465Z,1.90
2019-03-15T12:36:36.214Z,1.90
2019-03-15T12:39:06.191Z,1.70
2019-03-15T12:41:33.998Z,1.57
2019-03-15T12:44:01.901Z,1.60
2019-03-15T12:46:29.874Z,1.77
2019-03-15T12:48:57.663Z,1.30
2019-03-15T12:51:32.026Z,1.13
2019-03-15T12:53:55.243Z,1.43
2019-03-15T12:56:22.957Z,1.00
2019-03-15T12:58:50.693Z,1.73
2019-03-15T13:01:18.475Z,1.30
2019-03-15T13:03:46.405Z,1.40
2019-03-15T13:06:14.562Z,1.20
2019-03-15T13:08:42.625Z,1.17
2019-03-15T13:11:10.667Z,4.20
2019-03-15T13:13:38.620Z,1.50
2019-03-15T13:16:06.671Z,1.17
2019-03-15T13:18:34.773Z,0.90
2019-03-15T13:21:02.553Z,1.30
2019-03-15T13:23:30.523Z,0.93
2019-03-15T13:25:58.485Z,1.30
2019-03-15T13:28:26.453Z,1.27
2019-03-15T13:30:54.333Z,1.20
2019-03-15T13:33:22.216Z,1.03
2019-03-15T13:35:50.153Z,1.20
2019-03-15T13:38:18.149Z,1.10
2019-03-15T13:40:46.225Z,1.53
2019-03-15T13:43:14.310Z,1.20
2019-03-15T13:45:42.262Z,1.23
2019-03-15T13:48:10.239Z,1.37
2019-03-15T13:50:37.968Z,1.23
2019-03-15T13:53:05.694Z,0.90
2019-03-15T13:55:33.424Z,2.50
2019-03-15T13:58:01.221Z,1.27
2019-03-15T14:00:28.984Z,1.20
2019-03-15T14:02:56.882Z,1.40
2019-03-15T14:05:29.645Z,1.47
2019-03-15T14:08:10.767Z,1.03
2019-03-15T14:10:27.453Z,1.40
2019-03-15T14:12:55.457Z,1.20
2019-03-15T14:15:23.230Z,1.57
2019-03-15T14:17:50.953Z,1.27
2019-03-15T14:20:18.692Z,1.57
2019-03-15T14:22:46.487Z,1.30
2019-03-15T14:25:14.481Z,1.80
2019-03-15T14:27:42.211Z,1.80
2019-03-15T14:30:10.711Z,1.20
2019-03-15T14:32:38.466Z,1.93
2019-03-15T14:35:06.781Z,1.60
2019-03-15T14:37:34.750Z,1.40
2019-03-15T14:40:02.710Z,1.63
2019-03-15T14:42:30.457Z,1.63
2019-03-15T14:44:58.177Z,1.70
2019-03-15T14:47:25.845Z,1.23
2019-03-15T14:49:53.604Z,1.65
2019-03-15T14:52:21.322Z,1.40
2019-03-15T14:54:49.085Z,2.10
2019-03-15T14:57:17.015Z,2.93
2019-03-15T14:59:45.089Z,1.60
2019-03-15T15:02:13.082Z,5.00
2019-03-15T15:04:41.029Z,15.70
2019-03-15T15:07:09.025Z,5.27
2019-03-15T15:09:36.989Z,3.43
2019-03-15T15:12:04.981Z,2.10
2019-03-15T15:14:32.741Z,1.87
2019-03-15T15:17:00.475Z,1.83
2019-03-15T15:19:28.197Z,1.60
2019-03-15T15:21:56.075Z,1.87
2019-03-15T15:24:23.797Z,1.40
2019-03-15T15:26:51.539Z,1.20
2019-03-15T15:29:22.005Z,1.30
2019-03-15T15:31:48.827Z,1.20
2019-03-15T15:34:16.561Z,1.07
2019-03-15T15:36:44.402Z,1.10
2019-03-15T15:39:12.122Z,1.50
2019-03-15T15:41:39.859Z,1.23
2019-03-15T15:44:07.591Z,1.63
2019-03-15T15:46:35.348Z,1.17
2019-03-15T15:49:03.125Z,1.20
2019-03-15T15:51:30.869Z,1.10
2019-03-15T15:53:58.590Z,1.40
2019-03-15T15:56:26.357Z,1.40
2019-03-15T15:58:54.089Z,1.80
2019-03-15T16:01:21.850Z,1.53
2019-03-15T16:03:49.772Z,2.20
2019-03-15T16:06:17.507Z,1.80
2019-03-15T16:08:45.232Z,8.77
2019-03-15T16:11:12.985Z,1.90
2019-03-15T16:13:40.932Z,1.50
2019-03-15T16:16:08.574Z,1.30
2019-03-15T16:18:36.426Z,1.47
2019-03-15T16:21:04.157Z,1.17
2019-03-15T16:23:31.920Z,1.63
2019-03-15T16:25:59.647Z,1.60
2019-03-15T16:28:32.232Z,1.40
2019-03-15T16:30:56.932Z,1.70
2019-03-15T16:33:24.657Z,1.13
2019-03-15T16:35:52.382Z,1.83
2019-03-15T16:38:20.108Z,2.23
2019-03-15T16:40:47.830Z,2.03
2019-03-15T16:43:15.609Z,1.10
2019-03-15T16:45:43.342Z,1.37
2019-03-15T16:48:11.055Z,1.23
2019-03-15T16:50:38.798Z,1.13
2019-03-15T16:53:06.536Z,1.40
2019-03-15T16:55:34.269Z,2.10
2019-03-15T16:58:02.013Z,1.63
2019-03-15T17:00:29.719Z,1.20
2019-03-15T17:02:57.484Z,1.23
2019-03-15T17:05:25.213Z,1.50
2019-03-15T17:07:53.021Z,1.10
2019-03-15T17:10:20.743Z,1.23
2019-03-15T17:12:48.520Z,1.43
2019-03-15T17:15:16.306Z,1.33
2019-03-15T17:17:44.086Z,1.17
2019-03-15T17:20:11.817Z,1.67
2019-03-15T17:22:39.545Z,1.50
2019-03-15T17:25:07.926Z,2.17
2019-03-15T17:27:35.640Z,1.47
2019-03-15T17:30:04.325Z,1.50
2019-03-15T17:32:32.273Z,1.37
2019-03-15T17:35:00.311Z,1.43
2019-03-15T17:37:28.217Z,1.40
2019-03-15T17:39:55.933Z,1.50
2019-03-15T17:42:23.633Z,2.03
2019-03-15T17:44:51.390Z,2.10
2019-03-15T17:47:19.117Z,2.20
2019-03-15T17:49:46.850Z,2.03
2019-03-15T17:52:14.939Z,2.63
2019-03-15T17:54:45.289Z,2.90
2019-03-15T17:57:13.117Z,1.90
2019-03-15T17:59:42.933Z,1.83
2019-03-15T18:02:10.910Z,2.50
2019-03-15T18:04:38.893Z,2.67
2019-03-15T18:07:06.640Z,2.90
2019-03-15T18:09:34.409Z,2.70
2019-03-15T18:12:02.161Z,3.67
2019-03-15T18:14:29.942Z,3.83
2019-03-15T18:16:57.664Z,3.87
2019-03-15T18:19:25.433Z,4.37
2019-03-15T18:21:53.122Z,3.67
2019-03-15T18:24:20.832Z,3.77
2019-03-15T18:26:48.585Z,3.67
2019-03-15T18:29:25.769Z,3.43
2019-03-15T18:31:45.816Z,3.20
2019-03-15T18:34:13.594Z,3.53
2019-03-15T18:36:43.082Z,3.50
2019-03-15T18:39:10.845Z,3.27
2019-03-15T18:41:38.576Z,3.03
2019-03-15T18:44:06.277Z,3.73
2019-03-15T18:46:34.024Z,4.20
2019-03-15T18:49:01.740Z,4.00
2019-03-15T18:51:29.465Z,4.23
2019-03-15T18:53:57.164Z,2.60
2019-03-15T18:56:24.913Z,2.70
2019-03-15T18:58:52.700Z,2.73
2019-03-15T19:01:20.402Z,2.30
2019-03-15T19:03:48.148Z,1.93
2019-03-15T19:06:15.850Z,2.17
2019-03-15T19:08:43.880Z,2.53
2019-03-15T19:11:11.629Z,2.23
2019-03-15T19:13:40.325Z,2.80
2019-03-15T19:16:19.592Z,2.37
2019-03-15T19:18:38.146Z,2.40
2019-03-15T19:21:07.999Z,2.00
2019-03-15T19:23:35.409Z,1.97
2019-03-15T19:26:03.389Z,1.33
2019-03-15T19:28:31.121Z,1.63
2019-03-15T19:30:58.849Z,1.55
2019-03-15T19:33:26.586Z,1.43
2019-03-15T19:35:54.309Z,1.70
2019-03-15T19:38:22.025Z,1.40
2019-03-15T19:40:49.785Z,1.47
2019-03-15T19:43:17.486Z,1.40
2019-03-15T19:45:45.213Z,1.10
2019-03-15T19:48:13.027Z,1.60
2019-03-15T19:50:40.973Z,1.60
2019-03-15T19:53:08.706Z,1.70
2019-03-15T19:55:36.407Z,1.40
2019-03-15T19:58:04.269Z,2.27
2019-03-15T20:00:32.056Z,1.90
2019-03-15T20:02:59.945Z,2.00
2019-03-15T20:05:28.113Z,1.80
2019-03-15T20:07:56.206Z,1.47
2019-03-15T20:10:24.093Z,1.60
2019-03-15T20:12:52.050Z,2.23
2019-03-15T20:15:20.008Z,1.73
2019-03-15T20:17:48.006Z,1.67
2019-03-15T20:20:15.995Z,2.27
2019-03-15T20:22:43.959Z,1.60
2019-03-15T20:25:11.899Z,1.73
2019-03-15T20:27:39.898Z,4.37
2019-03-15T20:30:20.572Z,2.20
2019-03-15T20:32:39.965Z,3.47
2019-03-15T20:35:07.897Z,2.40
2019-03-15T20:37:35.889Z,2.17
2019-03-15T20:40:03.877Z,1.93
2019-03-15T20:42:31.733Z,2.50
2019-03-15T20:44:59.581Z,2.20
2019-03-15T20:47:27.418Z,2.43
2019-03-15T20:49:55.225Z,3.37
2019-03-15T20:52:23.336Z,2.13
2019-03-15T20:54:51.178Z,2.27
2019-03-15T20:57:18.998Z,1.97
2019-03-15T20:59:46.775Z,1.90
2019-03-15T21:02:14.893Z,2.27
2019-03-15T21:04:42.824Z,2.00
2019-03-15T21:07:10.773Z,2.10
2019-03-15T21:09:38.725Z,1.63
2019-03-15T21:12:06.621Z,2.60
2019-03-15T21:14:34.592Z,2.60
2019-03-15T21:17:02.641Z,3.37
2019-03-15T21:19:30.595Z,3.67
2019-03-15T21:21:58.489Z,3.20
2019-03-15T21:24:26.390Z,3.07
2019-03-15T21:26:54.261Z,2.10
2019-03-15T21:29:22.136Z,1.93
2019-03-15T21:31:50.079Z,2.20
2019-03-15T21:34:18.303Z,2.70
2019-03-15T21:36:46.131Z,3.00
2019-03-15T21:39:14.048Z,3.13
2019-03-15T21:41:41.793Z,3.00
2019-03-15T21:44:09.570Z,2.83
2019-03-15T21:46:37.645Z,3.40
2019-03-15T21:49:05.539Z,3.87
2019-03-15T21:51:33.488Z,5.50
2019-03-15T21:54:01.363Z,2.93
2019-03-15T21:56:29.130Z,2.97
2019-03-15T21:58:57.111Z,2.90
2019-03-15T22:01:25.153Z,3.10
2019-03-15T22:03:53.163Z,2.63
2019-03-15T22:06:21.039Z,3.10
2019-03-15T22:08:49.001Z,2.97
2019-03-15T22:11:21.459Z,4.00
2019-03-15T22:13:46.778Z,3.77
2019-03-15T22:16:14.781Z,3.80
2019-03-15T22:18:42.635Z,3.30
2019-03-15T22:21:10.525Z,3.30
2019-03-15T22:23:38.401Z,4.00
2019-03-15T22:26:06.135Z,3.73
2019-03-15T22:28:34.144Z,4.17
2019-03-15T22:31:15.604Z,5.50
2019-03-15T22:33:31.717Z,7.43
2019-03-15T22:35:59.693Z,7.87
2019-03-15T22:38:27.549Z,6.97
2019-03-15T22:40:55.471Z,8.43
2019-03-15T22:43:23.397Z,8.33
2019-03-15T22:45:51.381Z,6.50
2019-03-15T22:48:19.165Z,5.60
2019-03-15T22:50:47.136Z,5.50
2019-03-15T22:53:15.208Z,5.73
2019-03-15T22:55:43.097Z,5.73
2019-03-15T22:58:11.143Z,5.43
2019-03-15T23:00:39.386Z,5.03
2019-03-15T23:03:07.221Z,4.47
2019-03-15T23:05:35.185Z,4.73
2019-03-15T23:08:03.264Z,4.07
2019-03-15T23:10:31.163Z,4.73
2019-03-15T23:12:58.997Z,4.40
2019-03-15T23:15:26.982Z,3.77
2019-03-15T23:17:55.016Z,4.30
2019-03-15T23:20:23.101Z,4.30
2019-03-15T23:22:51.093Z,4.73
2019-03-15T23:25:19.066Z,4.00
2019-03-15T23:27:47.168Z,3.73
2019-03-15T23:30:15.118Z,4.03
2019-03-15T23:32:43.309Z,4.07
2019-03-15T23:35:11.271Z,3.67
2019-03-15T23:37:39.274Z,3.90
2019-03-15T23:40:07.294Z,4.43
2019-03-15T23:42:35.041Z,4.30
2019-03-15T23:45:03.008Z,4.70
2019-03-15T23:47:30.878Z,4.40
2019-03-15T23:49:58.809Z,4.40
2019-03-15T23:52:26.893Z,5.03
2019-03-15T23:54:54.781Z,4.10
2019-03-15T23:57:22.862Z,5.10
2019-03-15T23:59:50.813Z,4.63
